Time;durP1;ratioP1;P1;durP2;ratioP2;P2;SDS_P1;SDS_P2;PMS_P1;PMS_P2;Temp;Humidity;BMP_temperature;BMP_pressure;BME280_temperature;BME280_humidity;BME280_pressure;Samples;Min_cycle;Max_cycle;Signal;HPM_P1;HPM_P2
2023/05/13 00:00:11;;;;;;;25.35;21.48;;;15.10;99.90;;;;;;4996014;28;20177;-60
2023/05/13 00:02:36;;;;;;;24.85;22.35;;;15.00;99.90;;;;;;4995955;28;20725;-60
2023/05/13 00:05:02;;;;;;;29.23;25.75;;;15.00;99.90;;;;;;4995717;28;20181;-60
2023/05/13 00:07:27;;;;;;;37.20;29.33;;;14.90;99.90;;;;;;4996012;28;20173;-60
2023/05/13 00:09:53;;;;;;;32.90;29.48;;;14.90;99.90;;;;;;4995939;28;20182;-60
2023/05/13 00:12:19;;;;;;;35.88;31.77;;;14.90;99.90;;;;;;4995363;28;20193;-60
2023/05/13 00:14:45;;;;;;;35.17;31.38;;;15.00;99.90;;;;;;4994265;28;20584;-59
2023/05/13 00:17:10;;;;;;;36.25;32.47;;;15.00;99.90;;;;;;4994272;28;20630;-60
2023/05/13 00:19:36;;;;;;;39.15;33.85;;;14.90;99.90;;;;;;4994189;28;20499;-59
2023/05/13 00:22:01;;;;;;;38.35;33.95;;;14.90;99.90;;;;;;4994409;28;20177;-60
2023/05/13 00:24:27;;;;;;;40.08;34.30;;;14.90;99.90;;;;;;4994558;28;20920;-60
2023/05/13 00:26:53;;;;;;;40.40;34.92;;;14.90;99.90;;;;;;4994274;28;20508;-60
2023/05/13 00:29:19;;;;;;;39.60;35.42;;;14.90;99.90;;;;;;4995468;28;20274;-60
2023/05/13 00:31:44;;;;;;;38.33;34.33;;;14.90;99.90;;;;;;4995382;28;20180;-59
2023/05/13 00:34:10;;;;;;;37.72;33.50;;;14.90;99.90;;;;;;4995250;28;20227;-60
2023/05/13 00:36:36;;;;;;;37.92;33.92;;;14.90;99.90;;;;;;4995151;28;20577;-60
2023/05/13 00:39:02;;;;;;;40.70;34.92;;;14.90;99.90;;;;;;4995438;28;20181;-60
2023/05/13 00:41:28;;;;;;;37.00;33.08;;;15.00;99.90;;;;;;4995224;28;20185;-60
2023/05/13 00:43:55;;;;;;;39.53;35.25;;;14.90;99.90;;;;;;4995204;28;20705;-59
2023/05/13 00:46:21;;;;;;;38.60;34.45;;;14.90;99.90;;;;;;4995061;28;20290;-60
2023/05/13 00:48:47;;;;;;;39.53;35.38;;;14.90;99.90;;;;;;4995222;28;20235;-59
2023/05/13 00:51:13;;;;;;;38.85;34.60;;;14.80;99.90;;;;;;4994966;28;20325;-59
2023/05/13 00:53:39;;;;;;;38.53;34.42;;;14.80;99.90;;;;;;4994752;28;20265;-60
2023/05/13 00:56:05;;;;;;;39.47;34.53;;;14.70;99.90;;;;;;4995056;28;20542;-59
2023/05/13 00:58:30;;;;;;;39.97;34.20;;;14.70;99.90;;;;;;4994954;28;20172;-60
2023/05/13 01:01:24;;;;;;;42.55;35.55;;;14.60;99.90;;;;;;4994805;28;20181;-59
2023/05/13 01:04:06;;;;;;;38.80;34.60;;;14.70;99.90;;;;;;4995000;28;20277;-61
2023/05/13 01:06:50;;;;;;;40.88;35.85;;;14.70;99.90;;;;;;4994909;28;20253;-60
2023/05/13 01:09:24;;;;;;;39.05;35.08;;;14.70;99.90;;;;;;4994911;28;20176;-60
2023/05/13 01:11:53;;;;;;;40.13;34.90;;;14.70;99.90;;;;;;4994660;28;20166;-59
2023/05/13 01:14:32;;;;;;;40.30;36.03;;;14.70;99.90;;;;;;4994667;28;20212;-59
2023/05/13 01:17:05;;;;;;;39.25;35.13;;;14.70;99.90;;;;;;4994729;28;20300;-59
2023/05/13 01:19:43;;;;;;;37.63;33.58;;;14.70;99.90;;;;;;4994597;28;20207;-60
2023/05/13 01:22:09;;;;;;;36.25;32.03;;;14.70;99.90;;;;;;4994393;28;20176;-60
2023/05/13 02:04:12;;;;;;;22.55;20.35;;;14.80;99.90;;;;;;4921557;23;20247;-60
2023/05/13 02:06:38;;;;;;;24.67;22.10;;;14.80;99.90;;;;;;4879651;29;20189;-60
2023/05/13 02:09:03;;;;;;;22.67;20.27;;;14.70;99.90;;;;;;4879603;29;20193;-60
2023/05/13 02:11:29;;;;;;;21.77;19.67;;;14.70;99.90;;;;;;4879542;29;20192;-61
2023/05/13 02:13:55;;;;;;;21.60;19.35;;;14.70;99.90;;;;;;4879031;29;20202;-60
2023/05/13 02:16:20;;;;;;;21.05;19.08;;;14.70;99.90;;;;;;4878984;29;20272;-60
2023/05/13 02:18:46;;;;;;;20.92;18.92;;;14.70;99.90;;;;;;4879248;29;20189;-60
2023/05/13 02:21:12;;;;;;;19.45;17.40;;;14.70;99.90;;;;;;4879071;29;20181;-60
2023/05/13 02:23:37;;;;;;;18.45;16.80;;;14.70;99.90;;;;;;4879112;29;20181;-60
2023/05/13 02:26:03;;;;;;;17.52;15.80;;;14.80;99.90;;;;;;4879001;29;20189;-60
2023/05/13 02:28:29;;;;;;;17.67;15.88;;;14.80;99.90;;;;;;4878998;29;20177;-60
2023/05/13 02:30:55;;;;;;;17.08;15.27;;;14.90;99.90;;;;;;4878843;29;20193;-60
2023/05/13 02:33:20;;;;;;;17.02;15.23;;;14.90;99.90;;;;;;4879037;29;20559;-60
2023/05/13 02:35:46;;;;;;;15.55;13.95;;;14.90;99.90;;;;;;4878982;29;20197;-60
2023/05/13 02:38:11;;;;;;;14.55;12.70;;;14.90;99.90;;;;;;4878769;29;20318;-60
2023/05/13 02:40:37;;;;;;;12.75;11.45;;;15.00;99.90;;;;;;4878762;29;20647;-60
2023/05/13 02:43:03;;;;;;;11.68;10.68;;;15.00;99.90;;;;;;4878770;29;20209;-60
2023/05/13 02:45:29;;;;;;;10.35;9.35;;;15.00;99.90;;;;;;4878876;29;20178;-60
2023/05/13 02:47:55;;;;;;;10.02;9.13;;;15.10;99.90;;;;;;4878626;29;20530;-60
2023/05/13 02:50:20;;;;;;;9.82;8.90;;;15.10;99.90;;;;;;4878827;29;20595;-60
2023/05/13 02:52:46;;;;;;;9.45;8.55;;;15.10;99.90;;;;;;4878619;29;20728;-60
2023/05/13 02:55:12;;;;;;;8.80;7.80;;;15.10;99.90;;;;;;4878613;29;20185;-60
2023/05/13 02:57:37;;;;;;;9.52;8.52;;;15.20;99.90;;;;;;4878881;29;20485;-61
2023/05/13 03:00:04;;;;;;;8.38;7.53;;;15.20;99.90;;;;;;4878516;29;20577;-60
2023/05/13 03:02:31;;;;;;;7.97;7.25;;;15.20;99.90;;;;;;4878235;29;20313;-60
2023/05/13 03:04:57;;;;;;;8.18;7.07;;;15.20;99.90;;;;;;4878725;29;20185;-61
2023/05/13 03:07:23;;;;;;;7.00;6.30;;;15.20;99.90;;;;;;4878872;29;20233;-60
2023/05/13 03:09:49;;;;;;;7.40;6.65;;;15.10;99.90;;;;;;4878547;29;20180;-60
2023/05/13 03:12:15;;;;;;;8.25;6.55;;;15.20;99.90;;;;;;4878492;29;20531;-61
2023/05/13 03:14:43;;;;;;;7.18;6.45;;;15.20;99.90;;;;;;4878373;29;20703;-60
2023/05/13 03:17:09;;;;;;;6.50;5.90;;;15.20;99.90;;;;;;4881273;29;20539;-60
2023/05/13 03:19:36;;;;;;;6.10;5.50;;;15.20;99.90;;;;;;4882465;29;20181;-61
2023/05/13 03:22:02;;;;;;;6.10;5.47;;;15.20;99.90;;;;;;4882138;29;20256;-60
2023/05/13 03:24:28;;;;;;;6.13;5.53;;;15.30;99.90;;;;;;4882225;29;20181;-60
2023/05/13 03:26:56;;;;;;;6.25;5.55;;;15.30;99.90;;;;;;4882363;29;20186;-60
2023/05/13 03:29:22;;;;;;;6.90;5.38;;;15.20;99.90;;;;;;4881926;29;20178;-61
2023/05/13 03:31:48;;;;;;;7.47;5.38;;;15.30;99.90;;;;;;4882285;29;20206;-60
2023/05/13 03:34:14;;;;;;;5.72;5.20;;;15.30;99.90;;;;;;4882055;29;20244;-60
2023/05/13 03:36:40;;;;;;;5.70;5.10;;;15.30;99.90;;;;;;4874363;29;20196;-60
2023/05/13 03:39:06;;;;;;;5.95;5.35;;;15.30;99.90;;;;;;4881941;29;20518;-60
2023/05/13 03:41:31;;;;;;;7.28;5.20;;;15.30;99.90;;;;;;4881882;29;20173;-61
2023/05/13 03:43:57;;;;;;;5.93;4.85;;;15.40;99.90;;;;;;4881693;29;20194;-60
2023/05/13 03:46:23;;;;;;;5.47;4.95;;;15.40;99.90;;;;;;4881947;29;20288;-60
2023/05/13 03:48:48;;;;;;;6.95;5.45;;;15.30;99.90;;;;;;4881531;29;20520;-60
2023/05/13 03:51:14;;;;;;;5.82;5.32;;;15.20;99.90;;;;;;4881765;29;20301;-60
2023/05/13 03:53:40;;;;;;;5.63;5.10;;;15.20;99.90;;;;;;4873978;29;20304;-60
2023/05/13 03:56:06;;;;;;;5.90;5.20;;;15.10;99.90;;;;;;4881580;29;20185;-60
2023/05/13 03:58:32;;;;;;;5.55;5.00;;;15.10;99.90;;;;;;4881425;29;20188;-60
2023/05/13 04:00:57;;;;;;;8.85;5.78;;;15.10;99.90;;;;;;4881650;29;20181;-60
2023/05/13 04:03:23;;;;;;;7.20;5.85;;;15.10;99.90;;;;;;4881417;29;20733;-60
2023/05/13 04:05:50;;;;;;;6.65;6.05;;;15.10;99.90;;;;;;4881543;29;20200;-60
2023/05/13 04:08:16;;;;;;;7.20;6.50;;;15.00;99.90;;;;;;4881479;29;20308;-60
2023/05/13 04:10:42;;;;;;;7.05;6.35;;;15.00;99.90;;;;;;4881352;29;20651;-60
2023/05/13 04:13:08;;;;;;;7.53;6.82;;;15.00;99.90;;;;;;4881067;29;20670;-60
2023/05/13 04:15:33;;;;;;;7.38;6.68;;;14.90;99.90;;;;;;4881447;29;20639;-60
2023/05/13 04:17:59;;;;;;;8.07;6.63;;;14.80;99.90;;;;;;4864608;29;20185;-60
2023/05/13 04:20:25;;;;;;;7.20;6.50;;;14.80;99.90;;;;;;4881127;29;20185;-60
2023/05/13 04:22:51;;;;;;;9.55;6.78;;;14.70;99.90;;;;;;4881261;29;20663;-60
2023/05/13 04:25:17;;;;;;;8.18;7.20;;;14.70;99.90;;;;;;4881455;29;20635;-61
2023/05/13 04:27:43;;;;;;;8.70;7.10;;;14.70;99.90;;;;;;4880312;29;20665;-60
2023/05/13 04:30:09;;;;;;;8.90;7.85;;;14.60;99.90;;;;;;4881157;29;20181;-60
2023/05/13 04:32:35;;;;;;;8.98;8.25;;;14.60;99.90;;;;;;4880902;29;20245;-60
2023/05/13 04:35:00;;;;;;;9.30;8.25;;;14.60;99.90;;;;;;4881081;29;20580;-60
2023/05/13 04:37:26;;;;;;;9.80;8.40;;;14.60;99.90;;;;;;4880907;29;20181;-60
2023/05/13 04:39:52;;;;;;;9.60;8.60;;;14.50;99.90;;;;;;4880883;29;20231;-60
2023/05/13 04:42:18;;;;;;;9.88;8.38;;;14.50;99.90;;;;;;4880735;29;20253;-60
2023/05/13 04:44:43;;;;;;;10.02;7.82;;;14.50;99.90;;;;;;4880606;29;20181;-60
2023/05/13 04:47:09;;;;;;;9.82;8.10;;;14.50;99.90;;;;;;4880777;29;20189;-60
2023/05/13 04:49:35;;;;;;;9.00;8.10;;;14.60;99.90;;;;;;4880697;29;20197;-60
2023/05/13 04:52:02;;;;;;;8.40;7.57;;;14.60;99.90;;;;;;4880680;29;20177;-60
2023/05/13 04:54:28;;;;;;;8.18;7.10;;;14.50;99.90;;;;;;4880435;29;20248;-60
2023/05/13 04:56:54;;;;;;;8.70;7.35;;;14.60;99.90;;;;;;4880427;29;20218;-60
2023/05/13 04:59:21;;;;;;;8.45;7.55;;;14.60;99.90;;;;;;4880596;29;20188;-60
2023/05/13 05:01:46;;;;;;;7.63;6.78;;;14.50;99.90;;;;;;4880535;29;20177;-60
2023/05/13 05:04:12;;;;;;;7.70;6.95;;;14.50;99.90;;;;;;4880115;29;20554;-60
2023/05/13 05:06:37;;;;;;;7.60;6.90;;;14.50;99.90;;;;;;4880466;29;20188;-60
2023/05/13 05:09:03;;;;;;;7.38;6.55;;;14.50;99.90;;;;;;4880323;29;20181;-61
2023/05/13 05:11:29;;;;;;;6.63;6.03;;;14.50;99.90;;;;;;4880111;29;20188;-61
2023/05/13 05:13:55;;;;;;;7.03;6.18;;;14.50;99.90;;;;;;4880329;29;20235;-60
2023/05/13 05:16:20;;;;;;;7.38;6.20;;;14.40;99.90;;;;;;4880265;29;20186;-60
2023/05/13 05:18:46;;;;;;;7.50;6.55;;;14.40;99.90;;;;;;4880295;29;20181;-60
2023/05/13 05:21:12;;;;;;;8.95;6.20;;;14.40;99.90;;;;;;4880224;29;20177;-60
2023/05/13 05:23:38;;;;;;;8.00;6.25;;;14.50;99.90;;;;;;4880007;29;20214;-60
2023/05/13 05:26:04;;;;;;;6.25;5.75;;;14.50;99.90;;;;;;4879920;29;20182;-60
2023/05/13 05:28:29;;;;;;;6.38;5.70;;;14.50;99.90;;;;;;4880071;29;20331;-60
2023/05/13 05:30:55;;;;;;;6.30;5.70;;;14.60;99.90;;;;;;4880294;29;20654;-60
2023/05/13 05:33:22;;;;;;;6.93;6.20;;;14.60;99.90;;;;;;4879909;29;20322;-61
2023/05/13 05:35:48;;;;;;;7.85;6.05;;;14.60;99.90;;;;;;4879926;29;20173;-60
2023/05/13 05:38:14;;;;;;;6.97;6.28;;;14.50;99.90;;;;;;4879764;29;20185;-60
2023/05/13 05:40:42;;;;;;;7.78;5.97;;;14.50;99.90;;;;;;4878761;29;20260;-60
2023/05/13 05:43:09;;;;;;;6.82;6.22;;;14.40;99.90;;;;;;4879965;29;20180;-60
2023/05/13 05:45:36;;;;;;;8.48;6.47;;;14.50;99.90;;;;;;4879777;29;20192;-60
2023/05/13 05:48:02;;;;;;;7.03;5.97;;;14.60;99.90;;;;;;4879465;29;20185;-60
2023/05/13 05:50:28;;;;;;;7.30;5.82;;;14.70;99.90;;;;;;4879844;29;20174;-60
2023/05/13 05:52:54;;;;;;;7.40;6.20;;;14.80;99.90;;;;;;4879543;29;20216;-60
2023/05/13 05:55:20;;;;;;;6.85;6.15;;;14.90;99.90;;;;;;4879404;29;20659;-60
2023/05/13 05:57:46;;;;;;;6.07;5.45;;;15.00;99.90;;;;;;4879627;29;20227;-60
2023/05/13 06:00:12;;;;;;;7.38;6.13;;;15.00;99.90;;;;;;4879515;29;20189;-60
2023/05/13 06:02:38;;;;;;;7.60;6.10;;;15.10;99.90;;;;;;4879165;29;20690;-60
2023/05/13 06:05:04;;;;;;;6.60;6.03;;;15.10;99.90;;;;;;4879360;29;20189;-60
2023/05/13 06:07:30;;;;;;;8.65;5.97;;;15.20;99.90;;;;;;4879226;29;20285;-60
2023/05/13 06:09:56;;;;;;;9.57;5.78;;;15.30;99.90;;;;;;4879169;29;20268;-60
2023/05/13 06:12:22;;;;;;;6.80;6.07;;;15.30;99.90;;;;;;4879316;29;20185;-60
2023/05/13 06:14:48;;;;;;;6.93;6.22;;;15.40;99.90;;;;;;4879214;29;20220;-59
2023/05/13 06:17:13;;;;;;;7.00;5.93;;;15.40;99.90;;;;;;4879079;29;20185;-59
2023/05/13 06:19:41;;;;;;;7.75;6.90;;;15.40;99.90;;;;;;4879127;29;20224;-60
2023/05/13 06:22:10;;;;;;;10.45;6.40;;;15.50;99.90;;;;;;4879151;29;20181;-59
2023/05/13 06:24:37;;;;;;;6.85;6.15;;;15.50;99.90;;;;;;4878896;29;20248;-60
2023/05/13 06:27:03;;;;;;;7.10;6.40;;;15.60;99.90;;;;;;4879346;29;20185;-61
2023/05/13 06:29:29;;;;;;;7.00;6.13;;;15.60;99.90;;;;;;4879042;29;20539;-60
2023/05/13 06:31:55;;;;;;;8.07;6.75;;;15.70;99.90;;;;;;4878855;29;20189;-61
2023/05/13 06:34:20;;;;;;;10.73;6.80;;;15.80;99.90;;;;;;4878840;29;20675;-60
2023/05/13 06:36:46;;;;;;;6.93;6.22;;;15.90;99.90;;;;;;4878886;29;20181;-60
2023/05/13 06:39:12;;;;;;;7.60;6.10;;;16.00;99.90;;;;;;4878959;29;20204;-60
2023/05/13 06:41:38;;;;;;;7.65;6.97;;;16.00;99.90;;;;;;4878735;29;20181;-60
2023/05/13 06:44:05;;;;;;;8.57;7.10;;;16.10;99.90;;;;;;4878897;29;20189;-60
2023/05/13 06:46:31;;;;;;;10.15;6.72;;;16.00;99.90;;;;;;4878714;29;20654;-60
2023/05/13 06:48:57;;;;;;;10.30;7.65;;;15.90;99.90;;;;;;4878614;29;20233;-59
2023/05/13 06:51:25;;;;;;;8.52;7.72;;;15.80;99.90;;;;;;4878363;29;20173;-59
2023/05/13 06:53:50;;;;;;;9.52;7.82;;;15.90;99.90;;;;;;4878354;29;20209;-60
2023/05/13 06:56:16;;;;;;;9.25;7.72;;;16.00;99.90;;;;;;4878837;29;20242;-59
2023/05/13 06:58:41;;;;;;;13.85;10.93;;;16.00;99.90;;;;;;4878660;29;20248;-60
2023/05/13 07:01:07;;;;;;;21.33;17.33;;;16.00;99.90;;;;;;4878679;29;20535;-59
2023/05/13 07:03:33;;;;;;;17.63;16.10;;;16.00;99.90;;;;;;4878397;29;20725;-59
2023/05/13 07:05:58;;;;;;;10.27;9.27;;;16.00;99.90;;;;;;4878595;29;20213;-60
2023/05/13 07:08:24;;;;;;;9.57;8.57;;;16.00;99.90;;;;;;4878373;29;20177;-60
2023/05/13 07:10:50;;;;;;;10.23;8.90;;;15.90;99.90;;;;;;4878542;29;20244;-59
2023/05/13 07:13:18;;;;;;;9.73;7.75;;;16.00;99.90;;;;;;4878488;29;20551;-60
2023/05/13 07:15:46;;;;;;;9.52;8.32;;;16.00;99.90;;;;;;4878376;29;20645;-60
2023/05/13 07:18:11;;;;;;;8.98;7.95;;;15.90;99.90;;;;;;4878413;29;20184;-59
2023/05/13 07:20:37;;;;;;;11.18;7.97;;;15.90;99.90;;;;;;4878325;29;20181;-59
2023/05/13 07:23:03;;;;;;;10.57;7.90;;;16.00;99.90;;;;;;4878282;29;20201;-59
2023/05/13 07:25:28;;;;;;;8.75;7.85;;;16.10;99.90;;;;;;4878598;29;20318;-59
2023/05/13 07:27:54;;;;;;;11.13;9.25;;;16.10;99.90;;;;;;4878416;29;20184;-60
2023/05/13 07:30:20;;;;;;;9.27;8.40;;;16.20;99.90;;;;;;4878744;29;20173;-59
2023/05/13 07:32:45;;;;;;;10.88;9.50;;;16.20;99.90;;;;;;4878151;29;20181;-59
2023/05/13 07:35:11;;;;;;;11.25;8.73;;;16.30;99.90;;;;;;4878289;29;20182;-59
2023/05/13 07:37:37;;;;;;;12.05;8.48;;;16.50;99.90;;;;;;4878219;29;20181;-59
2023/05/13 07:40:07;;;;;;;9.23;8.32;;;16.70;99.90;;;;;;4878452;29;20185;-59
2023/05/13 07:42:33;;;;;;;12.48;8.48;;;16.80;99.90;;;;;;4878289;29;20189;-59
2023/05/13 07:44:59;;;;;;;10.55;7.95;;;16.90;99.90;;;;;;4878348;29;20178;-59
2023/05/13 07:47:26;;;;;;;10.43;8.65;;;16.90;99.90;;;;;;4878224;29;20182;-59
2023/05/13 07:49:52;;;;;;;9.18;8.30;;;16.90;99.90;;;;;;4878098;29;20185;-59
2023/05/13 07:52:17;;;;;;;10.82;8.70;;;17.10;99.90;;;;;;4878267;29;20238;-59
2023/05/13 07:54:43;;;;;;;10.02;8.52;;;17.30;99.90;;;;;;4878303;29;20578;-59
2023/05/13 07:57:09;;;;;;;11.85;9.85;;;17.40;99.90;;;;;;4878256;29;20192;-59
2023/05/13 07:59:34;;;;;;;10.93;9.07;;;17.50;99.90;;;;;;4878340;29;20181;-59
2023/05/13 08:02:00;;;;;;;11.70;8.68;;;17.70;99.90;;;;;;4877823;29;20189;-59
2023/05/13 08:04:26;;;;;;;10.43;8.38;;;17.60;99.90;;;;;;4881222;29;20185;-59
2023/05/13 08:06:52;;;;;;;9.63;8.57;;;17.70;99.90;;;;;;4881199;29;20281;-59
2023/05/13 08:09:18;;;;;;;8.85;8.05;;;17.70;99.90;;;;;;4881477;29;20234;-59
2023/05/13 08:11:43;;;;;;;10.77;8.68;;;17.70;99.90;;;;;;4881363;29;20189;-59
2023/05/13 08:14:09;;;;;;;11.95;9.10;;;17.80;99.90;;;;;;4881288;29;20232;-59
2023/05/13 08:16:35;;;;;;;10.43;9.43;;;17.80;99.90;;;;;;4881278;29;20321;-59
2023/05/13 08:19:02;;;;;;;10.85;8.98;;;17.90;99.90;;;;;;4881246;29;20173;-59
2023/05/13 08:21:27;;;;;;;9.82;8.60;;;18.00;99.90;;;;;;4881058;29;20201;-59
2023/05/13 08:23:53;;;;;;;10.00;8.60;;;17.90;99.90;;;;;;4881272;29;20197;-59
2023/05/13 08:26:19;;;;;;;11.30;8.98;;;18.00;99.90;;;;;;4864610;29;20263;-59
2023/05/13 08:28:45;;;;;;;10.20;9.20;;;18.10;99.90;;;;;;4881087;29;20359;-59
2023/05/13 08:31:11;;;;;;;11.25;9.20;;;18.20;99.90;;;;;;4880904;29;20627;-59
2023/05/13 08:33:38;;;;;;;10.30;9.25;;;18.10;99.90;;;;;;4880821;29;20205;-59
2023/05/13 08:36:04;;;;;;;11.10;9.77;;;18.10;99.90;;;;;;4880795;29;20193;-59
2023/05/13 08:38:32;;;;;;;10.10;9.10;;;18.30;99.90;;;;;;4880791;29;20742;-59
2023/05/13 08:40:58;;;;;;;12.00;9.90;;;18.30;99.90;;;;;;4880970;29;20192;-59
2023/05/13 08:43:27;;;;;;;11.00;9.82;;;18.20;99.90;;;;;;4880767;29;20181;-59
2023/05/13 08:45:55;;;;;;;12.27;10.85;;;18.20;99.90;;;;;;4880842;29;20178;-59
2023/05/13 08:48:23;;;;;;;11.27;10.18;;;18.30;99.90;;;;;;4880586;29;20507;-59
2023/05/13 08:50:49;;;;;;;11.45;10.35;;;18.40;99.90;;;;;;4880577;29;20169;-59
2023/05/13 08:53:17;;;;;;;11.98;10.02;;;18.40;99.90;;;;;;4880636;29;20212;-59
2023/05/13 08:55:43;;;;;;;12.63;10.43;;;18.50;99.90;;;;;;4880433;29;20177;-59
2023/05/13 08:58:09;;;;;;;11.05;9.95;;;18.60;99.90;;;;;;4880604;29;20186;-59
2023/05/13 09:00:34;;;;;;;11.10;10.07;;;18.60;99.90;;;;;;4880367;29;20182;-59
2023/05/13 09:03:00;;;;;;;11.98;10.77;;;18.70;99.90;;;;;;4880443;29;20315;-59
2023/05/13 09:05:26;;;;;;;12.15;10.55;;;18.90;99.90;;;;;;4880586;29;20173;-59
2023/05/13 09:07:53;;;;;;;11.00;9.95;;;18.70;99.90;;;;;;4880431;29;20678;-59
2023/05/13 09:10:20;;;;;;;12.50;10.57;;;18.80;99.90;;;;;;4880310;29;20714;-59
2023/05/13 09:12:48;;;;;;;15.20;13.00;;;18.70;99.90;;;;;;4880287;29;20177;-60
2023/05/13 09:15:19;;;;;;;11.77;9.98;;;18.90;99.90;;;;;;4880003;29;20204;-59
2023/05/13 09:18:08;;;;;;;12.02;10.82;;;19.20;99.90;;;;;;4880049;29;20181;-59
2023/05/13 09:20:34;;;;;;;12.90;10.65;;;19.20;99.90;;;;;;4879557;29;20273;-59
2023/05/13 09:23:10;;;;;;;13.27;10.35;;;19.30;99.90;;;;;;4879999;29;20211;-59
2023/05/13 09:25:37;;;;;;;11.25;10.25;;;19.20;99.90;;;;;;4880174;29;20174;-59
2023/05/13 09:28:05;;;;;;;11.32;10.07;;;19.20;99.90;;;;;;4879773;29;20193;-59
2023/05/13 09:30:39;;;;;;;12.73;11.40;;;19.30;99.90;;;;;;4880199;29;20169;-59
2023/05/13 09:33:16;;;;;;;12.27;11.10;;;19.30;99.90;;;;;;4879838;29;20200;-59
2023/05/13 09:35:49;;;;;;;12.43;11.23;;;19.30;99.90;;;;;;4879892;29;20184;-60
2023/05/13 09:38:20;;;;;;;13.40;11.35;;;19.40;99.90;;;;;;4879814;29;20294;-59
2023/05/13 09:41:04;;;;;;;14.90;11.35;;;19.40;99.90;;;;;;4879597;29;20508;-59
2023/05/13 09:43:33;;;;;;;15.50;10.90;;;19.60;99.90;;;;;;4879763;29;20630;-59
2023/05/13 09:46:03;;;;;;;13.05;11.25;;;19.50;99.90;;;;;;4879992;29;20623;-59
2023/05/13 09:48:32;;;;;;;11.82;10.63;;;19.70;99.90;;;;;;4879593;29;20207;-59
2023/05/13 09:50:58;;;;;;;14.63;10.93;;;19.60;99.90;;;;;;4879586;29;20197;-59
2023/05/13 09:53:27;;;;;;;15.55;10.65;;;19.60;99.90;;;;;;4879510;29;20293;-60
2023/05/13 09:55:58;;;;;;;15.07;12.18;;;19.80;99.90;;;;;;4879443;29;20212;-59
2023/05/13 09:58:27;;;;;;;12.93;11.73;;;19.90;99.90;;;;;;4879497;29;20186;-59
2023/05/13 10:00:53;;;;;;;13.15;11.43;;;20.00;99.90;;;;;;4879261;29;20657;-59
2023/05/13 10:03:19;;;;;;;15.70;11.43;;;20.10;99.90;;;;;;4879493;29;20228;-59
2023/05/13 10:05:45;;;;;;;12.18;10.65;;;20.00;99.90;;;;;;4879193;29;20173;-59
2023/05/13 10:08:12;;;;;;;17.13;10.98;;;20.00;99.90;;;;;;4879439;29;20209;-59
2023/05/13 10:10:39;;;;;;;12.60;11.40;;;20.00;99.90;;;;;;4879697;29;20178;-59
2023/05/13 10:13:08;;;;;;;12.30;11.02;;;20.10;99.90;;;;;;4879227;29;20221;-59
2023/05/13 10:15:34;;;;;;;12.10;10.90;;;20.20;99.90;;;;;;4879236;29;20192;-59
2023/05/13 10:18:01;;;;;;;12.15;10.82;;;20.10;99.90;;;;;;4879178;29;20641;-59
2023/05/13 10:20:26;;;;;;;11.65;10.45;;;20.20;99.90;;;;;;4878966;29;20536;-59
2023/05/13 10:22:56;;;;;;;14.50;11.18;;;20.30;99.90;;;;;;4862501;29;20173;-59
2023/05/13 10:25:22;;;;;;;14.15;11.43;;;20.50;99.90;;;;;;4878570;29;20184;-59
2023/05/13 10:27:54;;;;;;;13.55;11.07;;;20.50;99.90;;;;;;4879007;29;20324;-59
2023/05/13 10:30:25;;;;;;;11.13;10.10;;;20.50;99.90;;;;;;4879018;29;20217;-61
2023/05/13 10:32:51;;;;;;;11.68;10.48;;;20.50;99.90;;;;;;4878641;29;20639;-59
2023/05/13 10:35:18;;;;;;;12.07;10.88;;;20.50;99.90;;;;;;4878698;29;20187;-59
2023/05/13 10:38:06;;;;;;;11.85;10.65;;;20.50;99.90;;;;;;4878916;29;20177;-59
2023/05/13 10:40:34;;;;;;;13.75;11.10;;;20.40;99.90;;;;;;4878911;29;20221;-59
2023/05/13 10:43:15;;;;;;;13.65;12.23;;;20.50;99.90;;;;;;4878709;29;20178;-59
2023/05/13 10:45:49;;;;;;;13.40;11.95;;;20.80;99.90;;;;;;4878968;29;20248;-59
2023/05/13 10:48:16;;;;;;;12.90;11.60;;;20.80;99.90;;;;;;4878815;29;20544;-59
2023/05/13 10:51:01;;;;;;;13.02;11.73;;;21.00;99.90;;;;;;4878702;29;20189;-60
2023/05/13 10:53:30;;;;;;;15.10;12.13;;;20.90;99.90;;;;;;4878595;29;20201;-59
2023/05/13 10:55:58;;;;;;;13.48;12.18;;;21.00;99.90;;;;;;4878785;29;20192;-59
2023/05/13 10:58:38;;;;;;;12.02;10.65;;;21.00;99.90;;;;;;4878706;29;20516;-59
2023/05/13 11:01:28;;;;;;;12.40;11.10;;;21.00;99.90;;;;;;4878612;29;20186;-60
2023/05/13 11:03:56;;;;;;;12.30;11.02;;;21.00;99.90;;;;;;4878323;29;20273;-59
2023/05/13 11:06:43;;;;;;;12.68;11.25;;;21.10;99.90;;;;;;4878568;29;20245;-59
2023/05/13 11:09:22;;;;;;;14.90;10.68;;;21.10;99.90;;;;;;4878027;29;20193;-59
2023/05/13 11:11:52;;;;;;;13.02;11.73;;;21.20;99.90;;;;;;4878540;29;20235;-59
2023/05/13 11:14:22;;;;;;;11.57;10.35;;;21.20;99.90;;;;;;4878419;29;20678;-60
2023/05/13 11:16:52;;;;;;;11.90;10.68;;;21.20;99.90;;;;;;4878690;29;20177;-59
2023/05/13 11:19:30;;;;;;;13.38;12.07;;;21.10;99.90;;;;;;4878555;29;20173;-59
2023/05/13 11:22:13;;;;;;;12.45;10.93;;;21.20;99.90;;;;;;4878623;29;20177;-59
2023/05/13 11:24:39;;;;;;;12.57;10.60;;;21.30;99.90;;;;;;4878486;29;20182;-60
2023/05/13 11:27:19;;;;;;;12.68;10.93;;;21.10;99.90;;;;;;4877003;29;20204;-59
2023/05/13 11:29:53;;;;;;;12.23;11.00;;;21.10;99.90;;;;;;4878372;29;20204;-60
2023/05/13 11:32:44;;;;;;;12.73;10.70;;;21.10;99.90;;;;;;4878410;29;20283;-59
2023/05/13 11:35:10;;;;;;;14.65;11.18;;;21.20;99.90;;;;;;4878105;29;20315;-59
2023/05/13 11:37:42;;;;;;;13.07;11.68;;;21.40;99.90;;;;;;4879063;29;20284;-59
2023/05/13 11:40:09;;;;;;;14.57;11.80;;;21.40;99.90;;;;;;4882035;29;20191;-59
2023/05/13 11:42:37;;;;;;;15.50;12.02;;;21.40;99.90;;;;;;4881739;29;20251;-59
2023/05/13 11:45:04;;;;;;;13.18;11.77;;;21.40;99.90;;;;;;4881983;29;20192;-59
2023/05/13 11:47:29;;;;;;;15.25;12.38;;;21.40;99.90;;;;;;4881522;29;20710;-59
2023/05/13 11:49:56;;;;;;;15.50;12.00;;;21.50;99.90;;;;;;4881634;29;20271;-60
2023/05/13 11:52:21;;;;;;;15.52;12.00;;;21.40;99.90;;;;;;4882051;29;20189;-60
2023/05/13 11:54:52;;;;;;;16.52;12.70;;;21.20;99.90;;;;;;4881763;29;20213;-60
2023/05/13 11:57:26;;;;;;;13.40;11.38;;;21.20;99.90;;;;;;4881822;29;20595;-59
2023/05/13 11:59:57;;;;;;;13.88;12.25;;;21.40;99.90;;;;;;4881624;29;20237;-60
2023/05/13 12:02:35;;;;;;;17.33;12.75;;;21.40;99.90;;;;;;4881343;29;20225;-59
2023/05/13 12:05:05;;;;;;;16.05;11.98;;;21.30;99.90;;;;;;4881372;29;20488;-59
2023/05/13 12:07:31;;;;;;;19.02;12.38;;;21.40;99.90;;;;;;4881601;29;20205;-59
2023/05/13 12:09:59;;;;;;;13.80;12.02;;;21.40;99.90;;;;;;4881379;29;20177;-59
2023/05/13 12:12:27;;;;;;;15.30;11.45;;;21.40;99.90;;;;;;4881323;29;20220;-60
2023/05/13 12:14:54;;;;;;;18.63;11.80;;;21.40;99.90;;;;;;4881084;29;20631;-59
2023/05/13 12:17:20;;;;;;;15.70;12.68;;;21.50;99.90;;;;;;4881306;29;20292;-60
2023/05/13 12:20:11;;;;;;;14.15;11.98;;;21.40;99.90;;;;;;4881331;29;20642;-59
2023/05/13 12:22:48;;;;;;;12.98;11.43;;;21.50;99.90;;;;;;4881114;29;20659;-59
2023/05/13 12:25:32;;;;;;;20.83;12.10;;;21.50;99.90;;;;;;4881074;29;20184;-59
2023/05/13 12:28:23;;;;;;;16.02;11.50;;;21.50;99.90;;;;;;4881221;29;20177;-60
2023/05/13 12:30:52;;;;;;;16.70;11.40;;;21.60;99.90;;;;;;4881107;29;20182;-60
2023/05/13 12:33:21;;;;;;;14.27;11.43;;;21.60;99.90;;;;;;4880876;29;20209;-60
2023/05/13 12:35:48;;;;;;;15.73;11.55;;;21.50;99.90;;;;;;4880768;29;20208;-59
2023/05/13 12:38:20;;;;;;;17.75;11.68;;;21.50;99.90;;;;;;4880961;29;20177;-59
2023/05/13 12:40:47;;;;;;;15.48;11.43;;;21.40;99.90;;;;;;4880983;29;20231;-59
2023/05/13 12:43:15;;;;;;;18.73;11.45;;;21.50;99.90;;;;;;4881092;29;20189;-59
2023/05/13 12:45:42;;;;;;;17.90;11.32;;;21.50;99.90;;;;;;4880754;29;20181;-59
2023/05/13 12:48:08;;;;;;;16.40;11.93;;;21.50;99.90;;;;;;4880290;29;20181;-59
2023/05/13 12:50:34;;;;;;;15.02;10.70;;;21.50;99.90;;;;;;4880281;29;20196;-59
2023/05/13 12:52:59;;;;;;;17.88;10.88;;;21.40;99.90;;;;;;4880737;29;20173;-59
2023/05/13 12:55:26;;;;;;;19.00;11.30;;;21.40;99.90;;;;;;4880612;29;20189;-59
2023/05/13 12:57:58;;;;;;;16.17;10.45;;;21.50;99.90;;;;;;4880636;29;20185;-59
2023/05/13 13:00:24;;;;;;;14.07;11.07;;;21.40;99.90;;;;;;4880495;29;20181;-60
2023/05/13 13:02:52;;;;;;;20.40;11.93;;;21.40;99.90;;;;;;4880286;29;20639;-60
2023/05/13 13:05:18;;;;;;;21.00;11.30;;;21.40;99.90;;;;;;4880279;29;20188;-60
2023/05/13 13:07:44;;;;;;;21.55;11.40;;;21.30;99.90;;;;;;4880553;29;20189;-60
2023/05/13 13:10:10;;;;;;;16.88;10.48;;;21.30;99.90;;;;;;4880334;29;20189;-59
2023/05/13 13:12:36;;;;;;;18.08;10.55;;;21.30;99.90;;;;;;4880322;29;20547;-60
2023/05/13 13:15:01;;;;;;;17.65;11.23;;;21.30;99.90;;;;;;4880123;29;20212;-60
2023/05/13 13:17:27;;;;;;;19.48;12.25;;;21.30;99.90;;;;;;4880267;29;20715;-60